createdAt,value
2022-10-07T00:01:10.148Z,96660.19
2022-10-07T00:03:38.023Z,96661.47
2022-10-07T00:06:08.604Z,96660.81
2022-10-07T00:08:38.952Z,96665.44
2022-10-07T00:11:09.048Z,96665.09
2022-10-07T00:13:39.721Z,96659.47
2022-10-07T00:16:10.385Z,96664.09
2022-10-07T00:18:39.909Z,96654.16
2022-10-07T00:21:10.631Z,96660.09
2022-10-07T00:23:42.067Z,96656.44
2022-10-07T00:26:12.698Z,96650.00
2022-10-07T00:28:40.838Z,96654.31
2022-10-07T00:31:16.794Z,96649.50
2022-10-07T00:33:45.284Z,96644.84
2022-10-07T00:36:17.184Z,96641.69
2022-10-07T00:38:51.523Z,96640.34
2022-10-07T00:41:23.207Z,96635.56
2022-10-07T00:43:50.962Z,96627.25
2022-10-07T00:46:26.797Z,96630.22
2022-10-07T00:48:55.094Z,96628.22
2022-10-07T00:51:23.799Z,96623.59
2022-10-07T00:53:55.902Z,96626.56
2022-10-07T00:56:26.858Z,96619.91
2022-10-07T00:58:55.030Z,96615.91
2022-10-07T01:01:24.475Z,96610.63
2022-10-07T01:03:52.314Z,96608.44
2022-10-07T01:06:21.208Z,96607.91
2022-10-07T01:08:52.757Z,96612.50
2022-10-07T01:11:36.586Z,96599.09
2022-10-07T01:14:10.182Z,96603.88
2022-10-07T01:16:48.878Z,96600.88
2022-10-07T01:19:40.195Z,96599.34
2022-10-07T01:22:23.146Z,96592.88
2022-10-07T01:25:02.160Z,96594.16
2022-10-07T01:27:33.836Z,96585.69
2022-10-07T01:30:05.437Z,96579.19
2022-10-07T01:32:37.697Z,96584.16
2022-10-07T01:35:11.096Z,96580.19
2022-10-07T01:37:45.025Z,96576.81
2022-10-07T01:40:15.893Z,96572.16
2022-10-07T01:42:47.389Z,96569.34
2022-10-07T01:45:21.578Z,96568.16
2022-10-07T01:47:49.726Z,96568.16
2022-10-07T01:50:21.670Z,96560.50
2022-10-07T01:53:12.812Z,96562.13
2022-10-07T01:55:52.655Z,96562.13
2022-10-07T01:58:34.286Z,96563.78
2022-10-07T02:01:13.103Z,96560.50
2022-10-07T02:04:21.313Z,96556.47
2022-10-07T02:06:58.285Z,96565.44
2022-10-07T02:09:34.476Z,96564.41
2022-10-07T02:12:10.770Z,96554.81
2022-10-07T02:14:45.089Z,96559.47
2022-10-07T02:17:19.006Z,96547.88
2022-10-07T02:19:53.366Z,96553.81
2022-10-07T02:22:24.974Z,96549.53
2022-10-07T02:24:55.495Z,96548.81
2022-10-07T02:27:28.499Z,96554.56
2022-10-07T02:30:02.965Z,96539.47
2022-10-07T02:32:34.418Z,96551.91
2022-10-07T02:35:13.119Z,96544.78
2022-10-07T02:37:42.827Z,96544.63
2022-10-07T02:40:12.369Z,96543.44
2022-10-07T02:42:48.894Z,96541.50
2022-10-07T02:45:26.774Z,96540.31
2022-10-07T02:48:00.972Z,96540.59
2022-10-07T02:50:37.962Z,96531.00
2022-10-07T02:53:07.482Z,96539.97
2022-10-07T02:55:36.228Z,96535.09
2022-10-07T02:58:08.601Z,96530.28
2022-10-07T03:00:44.149Z,96527.44
2022-10-07T03:03:12.595Z,96523.97
2022-10-07T03:05:49.867Z,96523.78
2022-10-07T03:08:18.954Z,96518.09
2022-10-07T03:10:47.642Z,96514.00
2022-10-07T03:13:17.017Z,96521.75
2022-10-07T03:15:51.935Z,96516.09
2022-10-07T03:18:28.647Z,96509.13
2022-10-07T03:21:05.480Z,96509.13
2022-10-07T03:23:33.606Z,96511.16
2022-10-07T03:26:01.795Z,96505.47
2022-10-07T03:28:33.333Z,96501.81
2022-10-07T03:31:07.159Z,96505.47
2022-10-07T03:33:37.544Z,96505.47
2022-10-07T03:36:08.198Z,96503.50
2022-10-07T03:38:37.190Z,96505.13
2022-10-07T03:41:06.250Z,96502.00
2022-10-07T03:43:35.319Z,96494.88
2022-10-07T03:46:07.600Z,96501.81
2022-10-07T03:48:37.986Z,96496.69
2022-10-07T03:51:05.948Z,96492.88
2022-10-07T03:53:39.158Z,96501.81
2022-10-07T03:56:07.776Z,96492.88
2022-10-07T03:58:37.097Z,96505.13
2022-10-07T04:01:10.594Z,96495.88
2022-10-07T04:03:42.707Z,96495.63
2022-10-07T04:06:10.861Z,96483.00
2022-10-07T04:08:41.084Z,96482.81
2022-10-07T04:11:09.478Z,96487.91
2022-10-07T04:13:40.917Z,96491.97
2022-10-07T04:16:13.167Z,96483.81
2022-10-07T04:18:42.142Z,96478.69
2022-10-07T04:21:11.324Z,96484.00
2022-10-07T04:23:41.218Z,96486.28
2022-10-07T04:26:10.214Z,96472.00
2022-10-07T04:28:41.203Z,96477.50
2022-10-07T04:31:13.828Z,96468.72
2022-10-07T04:33:46.235Z,96462.31
2022-10-07T04:36:17.847Z,96462.16
2022-10-07T04:38:52.286Z,96461.78
2022-10-07T04:41:25.623Z,96453.81
2022-10-07T04:43:57.871Z,96453.44
2022-10-07T04:46:29.942Z,96455.25
2022-10-07T04:49:03.295Z,96448.31
2022-10-07T04:51:32.041Z,96446.50
2022-10-07T04:54:01.533Z,96456.09
2022-10-07T04:56:44.651Z,96444.47
2022-10-07T04:59:14.871Z,96452.44
2022-10-07T05:01:45.356Z,96448.75
2022-10-07T05:04:13.835Z,96447.94
2022-10-07T05:06:41.569Z,96449.97
2022-10-07T05:09:12.018Z,96449.97
2022-10-07T05:11:43.170Z,96448.75
2022-10-07T05:14:21.624Z,96444.84
2022-10-07T05:16:53.910Z,96444.84
2022-10-07T05:19:26.182Z,96449.53
2022-10-07T05:21:55.005Z,96446.22
2022-10-07T05:24:22.998Z,96444.13
2022-10-07T05:26:51.645Z,96442.66
2022-10-07T05:29:20.074Z,96443.56
2022-10-07T05:31:52.875Z,96443.75
2022-10-07T05:34:24.906Z,96447.75
2022-10-07T05:36:54.227Z,96432.84
2022-10-07T05:39:23.012Z,96446.69
2022-10-07T05:41:55.438Z,96447.84
2022-10-07T05:44:28.917Z,96444.56
2022-10-07T05:46:59.695Z,96441.91
2022-10-07T05:49:28.176Z,96442.53
2022-10-07T05:51:56.979Z,96441.56
2022-10-07T05:54:24.924Z,96436.59
2022-10-07T05:56:54.923Z,96438.44
2022-10-07T05:59:24.430Z,96439.25
2022-10-07T06:01:57.461Z,96451.50
2022-10-07T06:04:28.350Z,96448.03
2022-10-07T06:06:56.857Z,96453.81
2022-10-07T06:09:42.131Z,96454.44
2022-10-07T06:12:32.572Z,96446.13
2022-10-07T06:15:04.543Z,96453.34
2022-10-07T06:17:32.483Z,96444.94
2022-10-07T06:20:04.222Z,96455.63
2022-10-07T06:22:32.111Z,96456.09
2022-10-07T06:25:02.719Z,96451.97
2022-10-07T06:27:32.761Z,96450.63
2022-10-07T06:30:01.085Z,96453.09
2022-10-07T06:32:30.282Z,96453.34
2022-10-07T06:34:58.366Z,96450.44
2022-10-07T06:37:30.526Z,96445.28
2022-10-07T06:39:59.860Z,96450.75
2022-10-07T06:42:30.209Z,96451.75
2022-10-07T06:45:17.278Z,96448.78
2022-10-07T06:47:46.098Z,96449.94
2022-10-07T06:50:15.071Z,96452.16
2022-10-07T06:52:45.397Z,96453.72
2022-10-07T06:55:13.841Z,96450.75
2022-10-07T06:57:56.169Z,96455.94
2022-10-07T07:00:25.318Z,96454.56
2022-10-07T07:02:53.003Z,96455.13
2022-10-07T07:05:21.133Z,96448.69
2022-10-07T07:07:50.548Z,96449.56
2022-10-07T07:10:19.398Z,96442.19
2022-10-07T07:12:53.792Z,96446.34
2022-10-07T07:15:22.871Z,96450.44
2022-10-07T07:17:50.570Z,96446.97
2022-10-07T07:20:19.529Z,96446.75
2022-10-07T07:22:47.618Z,96451.31
2022-10-07T07:25:16.889Z,96443.06
2022-10-07T07:27:46.553Z,96442.59
2022-10-07T07:30:15.835Z,96452.28
2022-10-07T07:32:45.954Z,96447.97
2022-10-07T07:35:14.072Z,96446.56
2022-10-07T07:37:42.266Z,96437.56
2022-10-07T07:40:11.041Z,96442.13
2022-10-07T07:42:40.581Z,96444.25
2022-10-07T07:45:09.088Z,96445.47
2022-10-07T07:47:37.070Z,96445.34
2022-10-07T07:50:06.610Z,96437.06
2022-10-07T07:52:35.088Z,96436.78
2022-10-07T07:55:05.619Z,96438.06
2022-10-07T07:57:33.405Z,96432.38
2022-10-07T08:00:08.225Z,96436.69
2022-10-07T08:02:42.057Z,96434.75
2022-10-07T08:05:14.107Z,96437.06
2022-10-07T08:07:41.950Z,96433.63
2022-10-07T08:10:11.627Z,96424.91
2022-10-07T08:12:40.213Z,96434.78
2022-10-07T08:15:11.487Z,96431.13
2022-10-07T08:17:40.210Z,96436.91
2022-10-07T08:20:10.766Z,96434.94
2022-10-07T08:22:39.309Z,96421.88
2022-10-07T08:25:08.410Z,96422.88
2022-10-07T08:27:36.455Z,96430.25
2022-10-07T08:30:05.222Z,96426.81
2022-10-07T08:32:34.816Z,96417.78
2022-10-07T08:35:02.513Z,96417.00
2022-10-07T08:37:30.827Z,96414.16
2022-10-07T08:39:58.889Z,96410.72
2022-10-07T08:42:31.995Z,96411.34
2022-10-07T08:45:00.736Z,96418.09
2022-10-07T08:47:34.946Z,96414.19
2022-10-07T08:50:09.797Z,96410.88
2022-10-07T08:52:49.029Z,96406.53
2022-10-07T08:55:20.233Z,96400.19
2022-10-07T08:58:11.127Z,96393.56
2022-10-07T09:00:44.173Z,96394.97
2022-10-07T09:03:25.307Z,96388.72
2022-10-07T09:05:58.714Z,96388.97
2022-10-07T09:08:32.878Z,96387.88
2022-10-07T09:11:15.684Z,96387.84
2022-10-07T09:13:48.086Z,96382.09
2022-10-07T09:16:23.294Z,96384.13
2022-10-07T09:18:54.239Z,96385.63
2022-10-07T09:21:30.269Z,96371.13
2022-10-07T09:24:15.212Z,96373.38
2022-10-07T09:26:44.218Z,96374.16
2022-10-07T09:29:12.457Z,96379.16
2022-10-07T09:31:40.901Z,96376.56
2022-10-07T09:34:19.801Z,96374.50
2022-10-07T09:37:21.882Z,96365.25
2022-10-07T09:39:51.427Z,96375.19
2022-10-07T09:42:29.875Z,96362.66
2022-10-07T09:45:01.170Z,96366.16
2022-10-07T09:47:33.494Z,96366.78
2022-10-07T09:50:01.202Z,96369.53
2022-10-07T09:52:32.532Z,96365.69
2022-10-07T09:55:32.979Z,96356.13
2022-10-07T09:58:02.385Z,96354.53
2022-10-07T10:00:31.495Z,96355.34
2022-10-07T10:03:06.430Z,96351.50
2022-10-07T10:05:36.686Z,96348.44
2022-10-07T10:08:08.338Z,96348.38
2022-10-07T10:10:37.897Z,96346.44
2022-10-07T10:13:07.371Z,96344.38
2022-10-07T10:15:43.840Z,96334.06
2022-10-07T10:18:38.477Z,96341.66
2022-10-07T10:21:27.349Z,96330.28
2022-10-07T10:23:59.011Z,96334.16
2022-10-07T10:26:45.095Z,96332.84
2022-10-07T10:29:40.078Z,96333.13
2022-10-07T10:32:39.675Z,96325.44
2022-10-07T10:35:14.995Z,96330.28
2022-10-07T10:37:59.269Z,96322.09
2022-10-07T10:40:34.314Z,96326.00
2022-10-07T10:43:16.378Z,96310.00
2022-10-07T10:46:07.132Z,96312.22
2022-10-07T10:48:44.033Z,96303.38
2022-10-07T10:51:32.121Z,96306.16
2022-10-07T10:54:18.106Z,96307.25
2022-10-07T10:56:53.919Z,96294.63
2022-10-07T10:59:52.408Z,96301.31
2022-10-07T11:02:49.502Z,96296.53
2022-10-07T11:05:21.848Z,96295.19
2022-10-07T11:07:54.845Z,96293.13
2022-10-07T11:10:25.240Z,96287.84
2022-10-07T11:12:58.853Z,96286.13
2022-10-07T11:15:32.687Z,96291.97
2022-10-07T11:18:05.581Z,96280.94
2022-10-07T11:20:38.834Z,96278.56
2022-10-07T11:23:20.696Z,96275.41
2022-10-07T11:25:53.965Z,96280.22
2022-10-07T11:28:26.923Z,96273.41
2022-10-07T11:31:04.694Z,96269.59
2022-10-07T11:33:43.188Z,96273.72
2022-10-07T11:36:16.897Z,96268.16
2022-10-07T11:38:44.993Z,96270.06
2022-10-07T11:41:20.894Z,96267.72
2022-10-07T11:43:56.847Z,96260.25
2022-10-07T11:46:29.712Z,96255.44
2022-10-07T11:49:02.429Z,96252.63
2022-10-07T11:51:35.590Z,96243.00
2022-10-07T11:54:06.423Z,96237.56
2022-10-07T11:56:39.553Z,96236.44
2022-10-07T11:59:08.881Z,96228.88
2022-10-07T12:01:52.931Z,96224.44
2022-10-07T12:04:38.230Z,96229.91
2022-10-07T12:07:42.613Z,96219.06
2022-10-07T12:10:24.497Z,96224.91
2022-10-07T12:12:55.508Z,96225.94
2022-10-07T12:15:37.199Z,96216.84
2022-10-07T12:18:30.310Z,96219.66
2022-10-07T12:21:07.232Z,96213.59
2022-10-07T12:23:43.042Z,96208.94
2022-10-07T12:26:52.330Z,96211.69
2022-10-07T12:29:23.749Z,96197.72
2022-10-07T12:31:53.475Z,96199.59
2022-10-07T12:34:35.141Z,96204.19
2022-10-07T12:37:46.913Z,96193.50
2022-10-07T12:40:20.839Z,96190.81
2022-10-07T12:42:56.705Z,96191.19
2022-10-07T12:45:27.880Z,96191.63
2022-10-07T12:48:00.515Z,96185.16
2022-10-07T12:50:31.734Z,96188.13
2022-10-07T12:53:03.569Z,96185.94
2022-10-07T12:55:36.964Z,96176.28
2022-10-07T12:58:34.829Z,96184.03
2022-10-07T13:01:17.261Z,96172.16
2022-10-07T13:04:11.198Z,96173.88
2022-10-07T13:07:09.425Z,96171.78
2022-10-07T13:10:09.543Z,96170.09
2022-10-07T13:12:44.909Z,96162.81
2022-10-07T13:15:31.406Z,96162.28
2022-10-07T13:18:09.911Z,96167.97
2022-10-07T13:20:56.933Z,96164.06
2022-10-07T13:23:27.926Z,96158.91
2022-10-07T13:25:58.491Z,96155.56
2022-10-07T13:28:31.963Z,96149.97
2022-10-07T13:31:14.484Z,96154.28
2022-10-07T13:33:43.199Z,96153.44
2022-10-07T13:36:20.781Z,96156.53
2022-10-07T13:38:50.355Z,96147.94
2022-10-07T13:41:24.984Z,96150.91
2022-10-07T13:43:56.069Z,96151.72
2022-10-07T13:46:27.193Z,96146.84
2022-10-07T13:48:56.278Z,96146.59
2022-10-07T13:51:31.556Z,96146.47
2022-10-07T13:54:01.557Z,96147.19
2022-10-07T13:56:33.644Z,96144.22
2022-10-07T13:59:02.093Z,96142.75
2022-10-07T14:01:33.189Z,96147.81
2022-10-07T14:04:09.947Z,96136.81
2022-10-07T14:06:48.581Z,96139.78
2022-10-07T14:09:26.440Z,96139.13
2022-10-07T14:11:58.739Z,96134.03
2022-10-07T14:14:32.435Z,96130.53
2022-10-07T14:17:00.749Z,96131.44
2022-10-07T14:19:32.819Z,96123.00
2022-10-07T14:22:15.959Z,96124.91
2022-10-07T14:24:51.487Z,96113.84
2022-10-07T14:27:41.113Z,96118.22
2022-10-07T14:30:59.873Z,96116.19
2022-10-07T14:33:53.529Z,96113.13
2022-10-07T14:36:22.918Z,96105.03
2022-10-07T14:38:55.246Z,96105.13
2022-10-07T14:41:24.795Z,96103.63
2022-10-07T14:43:52.920Z,96105.03
2022-10-07T14:46:22.682Z,96094.91
2022-10-07T14:48:51.191Z,96096.59
2022-10-07T14:51:23.310Z,96088.72
2022-10-07T14:53:55.426Z,96088.91
2022-10-07T14:56:27.093Z,96084.47
2022-10-07T14:58:55.881Z,96077.38
2022-10-07T15:01:24.627Z,96079.66
2022-10-07T15:03:52.725Z,96079.22
2022-10-07T15:06:21.584Z,96077.69
2022-10-07T15:08:49.738Z,96082.47
2022-10-07T15:11:21.079Z,96067.69
2022-10-07T15:13:49.863Z,96079.25
2022-10-07T15:16:19.552Z,96065.34
2022-10-07T15:18:52.155Z,96070.44
2022-10-07T15:21:21.904Z,96060.75
2022-10-07T15:23:52.209Z,96067.09
2022-10-07T15:26:24.290Z,96061.88
2022-10-07T15:28:54.305Z,96068.16
2022-10-07T15:31:23.220Z,96065.31
2022-10-07T15:33:51.499Z,96071.50
2022-10-07T15:36:20.060Z,96064.72
2022-10-07T15:38:47.751Z,96060.00
2022-10-07T15:41:31.971Z,96063.75
2022-10-07T15:44:00.925Z,96067.03
2022-10-07T15:46:29.501Z,96065.41
2022-10-07T15:48:57.987Z,96059.41
2022-10-07T15:51:27.597Z,96063.75
2022-10-07T15:53:55.358Z,96061.72
2022-10-07T15:56:25.322Z,96050.66
2022-10-07T15:58:54.367Z,96056.22
2022-10-07T16:01:22.220Z,96057.03
2022-10-07T16:03:51.030Z,96058.28
2022-10-07T16:06:21.366Z,96059.28
2022-10-07T16:08:49.466Z,96051.72
2022-10-07T16:11:17.879Z,96050.47
2022-10-07T16:13:47.746Z,96055.78
2022-10-07T16:16:20.143Z,96052.09
2022-10-07T16:18:50.186Z,96052.94
2022-10-07T16:21:21.589Z,96057.19
2022-10-07T16:23:51.242Z,96060.06
2022-10-07T16:26:21.351Z,96045.72
2022-10-07T16:29:08.829Z,96046.78
2022-10-07T16:31:41.264Z,96044.97
2022-10-07T16:34:10.893Z,96046.22
2022-10-07T16:36:43.351Z,96045.56
2022-10-07T16:39:15.673Z,96049.50
2022-10-07T16:41:44.077Z,96041.13
2022-10-07T16:44:12.093Z,96043.59
2022-10-07T16:46:42.082Z,96048.91
2022-10-07T16:49:13.693Z,96043.56
2022-10-07T16:51:41.783Z,96045.03
2022-10-07T16:54:13.056Z,96045.41
2022-10-07T16:56:42.146Z,96038.69
2022-10-07T16:59:12.837Z,96035.00
2022-10-07T17:01:42.192Z,96043.78
2022-10-07T17:04:10.665Z,96047.88
2022-10-07T17:06:38.418Z,96044.63
2022-10-07T17:09:06.344Z,96053.41
2022-10-07T17:11:35.588Z,96049.94
2022-10-07T17:14:05.512Z,96047.50
2022-10-07T17:16:36.828Z,96050.75
2022-10-07T17:19:07.003Z,96044.19
2022-10-07T17:21:36.067Z,96049.91
2022-10-07T17:24:04.287Z,96051.16
2022-10-07T17:26:32.587Z,96048.09
2022-10-07T17:29:03.096Z,96039.47
2022-10-07T17:31:32.272Z,96042.56
2022-10-07T17:34:01.694Z,96048.72
2022-10-07T17:36:31.121Z,96053.22
2022-10-07T17:38:59.306Z,96047.06
2022-10-07T17:41:28.950Z,96038.06
2022-10-07T17:43:58.175Z,96041.75
2022-10-07T17:46:27.256Z,96045.00
2022-10-07T17:48:56.629Z,96043.38
2022-10-07T17:51:27.714Z,96040.53
2022-10-07T17:53:58.605Z,96048.72
2022-10-07T17:56:27.921Z,96041.53
2022-10-07T17:58:56.810Z,96045.81
2022-10-07T18:01:27.341Z,96052.97
2022-10-07T18:03:57.411Z,96042.94
2022-10-07T18:06:26.389Z,96048.06
2022-10-07T18:08:54.651Z,96042.53
2022-10-07T18:11:44.044Z,96042.31
2022-10-07T18:14:29.473Z,96038.03
2022-10-07T18:16:57.417Z,96046.16
2022-10-07T18:19:26.448Z,96054.72
2022-10-07T18:21:56.264Z,96051.44
2022-10-07T18:24:27.374Z,96036.31
2022-10-07T18:26:58.891Z,96041.59
2022-10-07T18:29:26.955Z,96042.38
2022-10-07T18:31:55.588Z,96034.22
2022-10-07T18:34:23.766Z,96032.91
2022-10-07T18:36:56.240Z,96028.03
2022-10-07T18:39:24.970Z,96032.06
2022-10-07T18:41:53.010Z,96026.34
2022-10-07T18:44:22.481Z,96025.94
2022-10-07T18:46:50.766Z,96013.03
2022-10-07T18:49:18.495Z,96019.38
2022-10-07T18:51:47.222Z,96020.19
2022-10-07T18:54:15.078Z,96021.56
2022-10-07T18:56:43.113Z,96025.84
2022-10-07T18:59:13.120Z,96021.13
2022-10-07T19:01:44.357Z,96022.53
2022-10-07T19:04:15.518Z,96021.88
2022-10-07T19:06:45.219Z,96020.66
2022-10-07T19:09:17.717Z,96020.41
2022-10-07T19:11:46.345Z,96017.84
2022-10-07T19:14:13.670Z,96015.72
2022-10-07T19:16:44.606Z,96017.09
2022-10-07T19:19:15.474Z,96017.16
2022-10-07T19:21:43.717Z,96012.81
2022-10-07T19:24:11.569Z,96009.09
2022-10-07T19:26:42.264Z,96009.75
2022-10-07T19:29:11.322Z,96008.97
2022-10-07T19:31:42.160Z,96000.88
2022-10-07T19:34:13.811Z,96001.53
2022-10-07T19:36:47.355Z,95997.84
2022-10-07T19:39:16.322Z,96010.72
2022-10-07T19:41:45.103Z,96007.72
2022-10-07T19:44:13.477Z,96013.75
2022-10-07T19:46:42.086Z,96014.03
2022-10-07T19:49:11.905Z,96010.59
2022-10-07T19:51:42.186Z,96010.47
2022-10-07T19:54:10.597Z,96015.25
2022-10-07T19:56:39.868Z,96012.28
2022-10-07T19:59:09.529Z,96016.53
2022-10-07T20:01:39.321Z,96020.75
2022-10-07T20:04:09.285Z,96014.53
2022-10-07T20:06:38.768Z,96008.78
2022-10-07T20:09:08.497Z,96009.63
2022-10-07T20:11:36.723Z,96001.28
2022-10-07T20:14:06.083Z,96006.78
2022-10-07T20:16:34.969Z,96005.97
2022-10-07T20:19:06.794Z,96002.50
2022-10-07T20:21:36.627Z,96000.03
2022-10-07T20:24:07.454Z,96003.97
2022-10-07T20:26:36.990Z,96000.31
2022-10-07T20:29:07.337Z,95998.13
2022-10-07T20:31:36.938Z,95999.13
2022-10-07T20:34:06.131Z,96001.00
2022-10-07T20:36:35.866Z,96005.00
2022-10-07T20:39:25.358Z,95996.94
2022-10-07T20:42:12.036Z,95999.47
2022-10-07T20:44:40.268Z,95999.13
2022-10-07T20:47:10.297Z,96003.59
2022-10-07T20:49:41.293Z,96005.13
2022-10-07T20:52:11.695Z,95999.84
2022-10-07T20:54:40.735Z,95994.91
2022-10-07T20:57:08.761Z,96000.66
2022-10-07T20:59:36.411Z,96000.19
2022-10-07T21:02:09.381Z,95998.91
2022-10-07T21:04:37.652Z,95998.00
2022-10-07T21:07:05.985Z,95990.72
2022-10-07T21:09:36.228Z,95988.72
2022-10-07T21:12:07.754Z,95989.97
2022-10-07T21:14:35.477Z,95983.72
2022-10-07T21:17:03.815Z,95980.69
2022-10-07T21:19:32.647Z,95977.50
2022-10-07T21:22:00.630Z,95988.72
2022-10-07T21:24:28.685Z,95988.47
2022-10-07T21:26:56.667Z,95989.47
2022-10-07T21:29:25.787Z,95988.19
2022-10-07T21:31:53.440Z,95980.44
2022-10-07T21:34:21.693Z,95982.06
2022-10-07T21:36:53.893Z,95979.88
2022-10-07T21:39:22.369Z,95976.25
2022-10-07T21:41:50.548Z,95977.91
2022-10-07T21:44:18.291Z,95968.66
2022-10-07T21:46:47.616Z,95977.22
2022-10-07T21:49:16.295Z,95973.88
2022-10-07T21:51:44.946Z,95975.31
2022-10-07T21:54:15.252Z,95972.31
2022-10-07T21:56:46.078Z,95965.13
2022-10-07T21:59:14.122Z,95964.94
2022-10-07T22:01:43.189Z,95956.19
2022-10-07T22:04:17.695Z,95963.97
2022-10-07T22:07:04.136Z,95961.41
2022-10-07T22:09:31.947Z,95969.41
2022-10-07T22:11:59.985Z,95959.47
2022-10-07T22:14:27.773Z,95964.13
2022-10-07T22:16:56.322Z,95966.50
2022-10-07T22:19:25.419Z,95958.94
2022-10-07T22:21:53.462Z,95960.66
2022-10-07T22:24:21.655Z,95954.88
2022-10-07T22:26:51.136Z,95958.00
2022-10-07T22:29:22.643Z,95951.16
2022-10-07T22:31:50.426Z,95951.88
2022-10-07T22:34:36.229Z,95950.22
2022-10-07T22:37:06.108Z,95942.38
2022-10-07T22:39:33.815Z,95953.38
2022-10-07T22:42:03.853Z,95938.53
2022-10-07T22:44:31.757Z,95952.28
2022-10-07T22:47:00.389Z,95953.09
2022-10-07T22:49:30.170Z,95941.63
2022-10-07T22:51:59.828Z,95951.44
2022-10-07T22:54:29.387Z,95932.88
2022-10-07T22:56:57.361Z,95935.03
2022-10-07T22:59:25.007Z,95935.09
2022-10-07T23:01:52.946Z,95927.63
2022-10-07T23:04:21.518Z,95928.44
2022-10-07T23:06:49.837Z,95930.72
2022-10-07T23:09:17.489Z,95929.56
2022-10-07T23:11:46.796Z,95925.09
2022-10-07T23:14:14.487Z,95925.38
2022-10-07T23:16:43.867Z,95926.91
2022-10-07T23:19:11.683Z,95928.00
2022-10-07T23:21:39.465Z,95923.28
2022-10-07T23:24:09.800Z,95919.94
2022-10-07T23:26:38.341Z,95912.75
2022-10-07T23:29:08.554Z,95918.03
2022-10-07T23:31:36.389Z,95914.56
2022-10-07T23:34:06.361Z,95915.94
2022-10-07T23:36:34.741Z,95915.72
2022-10-07T23:39:02.791Z,95914.06
2022-10-07T23:41:33.028Z,95910.78
2022-10-07T23:44:03.095Z,95914.31
2022-10-07T23:46:35.836Z,95920.44
2022-10-07T23:49:05.390Z,95910.72
2022-10-07T23:51:34.292Z,95917.50
2022-10-07T23:54:04.245Z,95919.81
2022-10-07T23:56:32.478Z,95907.72
2022-10-07T23:59:01.570Z,95916.63
